Time;durP1;ratioP1;P1;durP2;ratioP2;P2;SDS_P1;SDS_P2;PMS_P1;PMS_P2;Temp;Humidity;BMP_temperature;BMP_pressure;BME280_temperature;BME280_humidity;BME280_pressure;Samples;Min_cycle;Max_cycle;Signal;HPM_P1;HPM_P2
2022/05/17 00:00:00;;;;;;;2.47;1.87;;;17.70;47.00;;;;;;581127;246;26936;-71
2022/05/17 00:02:27;;;;;;;4.87;1.83;;;17.70;46.90;;;;;;580893;246;26643;-71
2022/05/17 00:04:55;;;;;;;2.00;1.80;;;17.70;45.70;;;;;;580664;246;26929;-71
2022/05/17 00:07:23;;;;;;;2.22;1.90;;;17.70;45.70;;;;;;580642;246;26925;-71
2022/05/17 00:09:50;;;;;;;2.10;1.90;;;17.60;45.40;;;;;;580368;247;26634;-71
2022/05/17 00:12:17;;;;;;;3.08;1.60;;;17.60;47.50;;;;;;580440;247;27193;-71
2022/05/17 00:14:44;;;;;;;3.15;1.73;;;17.60;46.80;;;;;;580453;248;26636;-71
2022/05/17 00:17:12;;;;;;;1.37;1.27;;;17.60;46.10;;;;;;580369;248;27204;-71
2022/05/17 00:19:39;;;;;;;2.58;1.75;;;17.60;46.20;;;;;;580572;244;26597;-71
2022/05/17 00:22:07;;;;;;;3.08;1.60;;;17.60;46.00;;;;;;582674;244;26626;-71
2022/05/17 00:24:34;;;;;;;2.47;1.60;;;17.50;45.70;;;;;;580776;245;26649;-71
2022/05/17 00:27:04;;;;;;;1.67;1.58;;;17.50;45.80;;;;;;608871;236;26647;-71
2022/05/17 00:29:30;;;;;;;1.45;1.30;;;17.60;46.10;;;;;;603441;237;26598;-71
2022/05/17 00:31:58;;;;;;;3.05;1.58;;;17.50;47.10;;;;;;601683;239;26569;-71
2022/05/17 00:34:25;;;;;;;2.08;1.85;;;17.50;47.10;;;;;;604191;237;26614;-71
2022/05/17 00:36:52;;;;;;;2.62;2.00;;;17.50;47.30;;;;;;602082;236;26653;-71
2022/05/17 00:39:20;;;;;;;1.87;1.77;;;17.50;47.70;;;;;;603292;237;26593;-71
2022/05/17 00:41:47;;;;;;;2.12;1.50;;;17.50;45.90;;;;;;601423;238;26853;-71
2022/05/17 00:46:47;;;;;;;4.57;1.70;;;17.50;47.10;;;;;;611039;235;26658;-71
2022/05/17 00:49:15;;;;;;;2.03;1.80;;;17.50;48.60;;;;;;602913;236;26843;-71
2022/05/17 00:51:42;;;;;;;1.65;1.52;;;17.40;47.70;;;;;;601679;238;26635;-71
2022/05/17 00:54:09;;;;;;;2.30;1.85;;;17.40;49.50;;;;;;604075;237;26826;-71
2022/05/17 00:56:38;;;;;;;2.03;1.75;;;17.30;50.50;;;;;;602064;238;26598;-71
2022/05/17 00:59:07;;;;;;;2.15;1.80;;;17.30;50.50;;;;;;604417;238;26811;-71
2022/05/17 01:01:32;;;;;;;1.90;1.80;;;17.20;50.70;;;;;;606964;236;26597;-71
2022/05/17 01:04:03;;;;;;;1.55;1.33;;;17.20;50.20;;;;;;604391;235;26855;-71
2022/05/17 01:06:39;;;;;;;3.20;1.80;;;17.20;49.40;;;;;;603996;238;26808;-71
2022/05/17 01:09:06;;;;;;;1.87;1.52;;;17.20;50.30;;;;;;601507;236;26636;-71
2022/05/17 01:11:33;;;;;;;2.05;1.60;;;17.20;50.30;;;;;;602774;237;26633;-71
2022/05/17 01:16:33;;;;;;;1.70;1.60;;;17.20;50.10;;;;;;603472;235;26885;-71
2022/05/17 01:19:01;;;;;;;1.70;1.60;;;17.20;49.80;;;;;;605409;237;26583;-71
2022/05/17 01:21:28;;;;;;;1.67;1.50;;;17.20;49.40;;;;;;608490;235;27033;-71
2022/05/17 01:23:55;;;;;;;1.70;1.60;;;17.20;50.00;;;;;;608032;235;26689;-71
2022/05/17 01:26:22;;;;;;;1.37;1.37;;;17.10;51.10;;;;;;602697;237;26715;-71
2022/05/17 01:28:50;;;;;;;1.55;1.45;;;17.10;50.30;;;;;;609630;235;26637;-71
2022/05/17 01:31:18;;;;;;;1.98;1.73;;;17.10;51.30;;;;;;603723;237;26600;-71
2022/05/17 01:33:46;;;;;;;2.15;1.70;;;17.00;51.40;;;;;;606311;236;26599;-71
2022/05/17 01:36:15;;;;;;;1.92;1.52;;;17.00;52.80;;;;;;603856;236;26612;-71
2022/05/17 01:38:50;;;;;;;1.33;1.20;;;16.90;53.10;;;;;;610677;235;26851;-71
2022/05/17 01:41:11;;;;;;;1.67;1.58;;;16.90;53.00;;;;;;604066;236;26583;-71
2022/05/17 01:43:40;;;;;;;2.20;1.67;;;16.80;52.80;;;;;;605892;235;26598;-71
2022/05/17 01:46:08;;;;;;;1.52;1.42;;;16.80;52.90;;;;;;601729;237;26594;-71
2022/05/17 01:48:37;;;;;;;2.30;1.73;;;16.80;52.60;;;;;;601444;237;26629;-71
2022/05/17 01:51:05;;;;;;;1.62;1.50;;;16.70;52.50;;;;;;601509;239;26993;-71
2022/05/17 01:53:32;;;;;;;1.50;1.40;;;16.70;52.70;;;;;;602834;238;26618;-71
2022/05/17 01:55:59;;;;;;;1.60;1.50;;;16.70;52.70;;;;;;590569;242;26924;-71
2022/05/17 01:58:26;;;;;;;1.87;1.45;;;16.70;53.10;;;;;;590549;240;26596;-71
2022/05/17 02:00:55;;;;;;;1.60;1.50;;;16.70;53.10;;;;;;608149;236;26608;-71
2022/05/17 02:03:23;;;;;;;1.95;1.77;;;16.70;53.60;;;;;;601454;236;26656;-71
2022/05/17 02:05:51;;;;;;;1.85;1.30;;;16.60;53.70;;;;;;606431;236;26569;-71
2022/05/17 02:08:19;;;;;;;2.12;1.70;;;16.60;53.60;;;;;;605682;236;26581;-71
2022/05/17 02:10:46;;;;;;;2.67;1.37;;;16.60;56.00;;;;;;602065;237;26634;-71
2022/05/17 02:13:14;;;;;;;1.90;1.62;;;16.30;56.80;;;;;;603517;238;26818;-71
2022/05/17 02:15:41;;;;;;;2.33;1.77;;;16.30;56.80;;;;;;605829;236;26836;-71
2022/05/17 02:18:08;;;;;;;3.20;1.48;;;16.10;58.80;;;;;;603887;236;26656;-71
2022/05/17 02:20:35;;;;;;;1.55;1.42;;;16.00;62.40;;;;;;601534;235;27030;-71
2022/05/17 02:23:03;;;;;;;1.55;1.45;;;15.90;66.30;;;;;;603497;237;26638;-71
2022/05/17 02:25:30;;;;;;;1.62;1.52;;;15.70;67.30;;;;;;604449;236;26811;-71
2022/05/17 02:27:57;;;;;;;2.53;1.58;;;15.70;69.80;;;;;;604347;237;26584;-71
2022/05/17 02:30:24;;;;;;;1.50;1.40;;;15.60;71.00;;;;;;602881;235;26860;-71
2022/05/17 02:32:53;;;;;;;1.50;1.30;;;15.40;75.10;;;;;;602010;237;26600;-71
2022/05/17 02:35:20;;;;;;;2.83;1.67;;;15.50;77.60;;;;;;605149;232;26591;-71
2022/05/17 02:37:48;;;;;;;1.92;1.80;;;15.40;74.50;;;;;;605701;236;26576;-71
2022/05/17 02:40:16;;;;;;;1.42;1.33;;;15.30;76.60;;;;;;601928;238;26590;-71
2022/05/17 02:42:43;;;;;;;1.58;1.40;;;15.30;76.40;;;;;;604308;234;26837;-71
2022/05/17 02:45:11;;;;;;;1.45;1.37;;;15.30;85.50;;;;;;602796;238;26547;-71
2022/05/17 02:47:38;;;;;;;1.98;1.40;;;15.30;86.20;;;;;;607540;236;26809;-71
2022/05/17 02:50:06;;;;;;;2.45;1.60;;;15.30;85.60;;;;;;604358;236;26597;-71
2022/05/17 02:52:34;;;;;;;2.80;1.58;;;15.30;88.40;;;;;;608927;235;26656;-71
2022/05/17 02:55:01;;;;;;;1.60;1.50;;;15.30;86.80;;;;;;606224;232;26577;-71
2022/05/17 02:57:30;;;;;;;2.08;1.62;;;15.30;90.00;;;;;;607770;235;26578;-71
2022/05/17 02:59:57;;;;;;;1.92;1.50;;;15.20;85.70;;;;;;602591;238;26645;-71
2022/05/17 03:02:25;;;;;;;1.50;1.40;;;15.20;85.70;;;;;;608277;235;26596;-71
2022/05/17 03:04:51;;;;;;;3.45;1.52;;;15.20;84.70;;;;;;611707;235;26649;-71
2022/05/17 03:07:19;;;;;;;1.40;1.30;;;15.10;90.60;;;;;;606550;235;26586;-71
2022/05/17 03:09:47;;;;;;;2.33;1.40;;;15.10;90.30;;;;;;601340;237;26644;-71
2022/05/17 03:12:14;;;;;;;1.90;1.80;;;15.10;94.50;;;;;;601467;239;26634;-71
2022/05/17 03:14:41;;;;;;;1.85;1.75;;;15.00;94.30;;;;;;609294;236;26830;-71
2022/05/17 03:17:09;;;;;;;1.55;1.45;;;15.00;96.40;;;;;;607321;236;26577;-71
2022/05/17 03:19:36;;;;;;;1.62;1.52;;;15.00;96.90;;;;;;605515;236;26623;-63
2022/05/17 03:22:04;;;;;;;1.98;1.55;;;15.00;95.50;;;;;;604148;236;26899;-63
2022/05/17 03:24:31;;;;;;;1.62;1.52;;;15.00;98.00;;;;;;603938;238;26609;-63
2022/05/17 03:26:58;;;;;;;2.25;1.70;;;15.00;96.20;;;;;;603989;235;26879;-71
2022/05/17 03:29:25;;;;;;;2.15;1.67;;;15.00;95.90;;;;;;607650;235;26602;-71
2022/05/17 03:31:52;;;;;;;1.87;1.75;;;15.00;95.70;;;;;;603189;237;26847;-71
2022/05/17 03:34:20;;;;;;;4.25;1.60;;;15.00;96.60;;;;;;603123;237;26619;-69
2022/05/17 03:36:47;;;;;;;2.20;1.80;;;14.90;97.40;;;;;;609976;235;26829;-71
2022/05/17 03:39:14;;;;;;;3.72;1.50;;;14.70;99.00;;;;;;607206;235;26636;-71
2022/05/17 03:41:41;;;;;;;4.53;2.10;;;14.70;99.90;;;;;;606218;235;26821;-71
2022/05/17 03:44:08;;;;;;;2.50;1.75;;;14.60;99.90;;;;;;604234;237;26649;-71
2022/05/17 03:46:36;;;;;;;1.67;1.58;;;14.50;99.90;;;;;;602336;237;26589;-71
2022/05/17 03:49:04;;;;;;;1.65;1.50;;;14.20;99.90;;;;;;602889;237;26625;-71
2022/05/17 03:51:32;;;;;;;2.60;1.52;;;14.10;99.90;;;;;;605022;237;26631;-71
2022/05/17 03:54:00;;;;;;;2.12;1.60;;;13.90;99.90;;;;;;602830;234;26635;-71
2022/05/17 03:56:27;;;;;;;3.30;1.50;;;13.90;99.90;;;;;;608649;235;26587;-71
2022/05/17 03:58:55;;;;;;;3.30;1.60;;;13.90;99.90;;;;;;608763;236;26759;-71
2022/05/17 04:01:23;;;;;;;1.77;1.67;;;13.80;99.90;;;;;;603351;237;26978;-71
2022/05/17 04:03:50;;;;;;;3.05;1.67;;;13.80;99.90;;;;;;603302;238;26627;-71
2022/05/17 04:06:19;;;;;;;1.62;1.52;;;13.90;99.90;;;;;;602333;238;26932;-71
2022/05/17 04:08:44;;;;;;;2.67;1.50;;;13.90;99.90;;;;;;602053;232;26551;-71
2022/05/17 04:11:12;;;;;;;2.42;1.77;;;13.80;99.90;;;;;;604530;237;26833;-71
2022/05/17 04:13:39;;;;;;;1.67;1.50;;;13.80;99.90;;;;;;603035;234;26617;-71
2022/05/17 04:16:06;;;;;;;1.60;1.50;;;13.80;99.90;;;;;;592619;242;26888;-71
2022/05/17 04:18:33;;;;;;;2.17;1.70;;;13.70;99.90;;;;;;585009;245;26688;-71
2022/05/17 04:21:00;;;;;;;2.30;1.73;;;13.70;99.90;;;;;;586791;245;26897;-71
2022/05/17 04:23:29;;;;;;;1.80;1.70;;;13.70;99.90;;;;;;591478;242;26691;-71
2022/05/17 04:25:56;;;;;;;1.95;1.52;;;13.70;99.90;;;;;;593442;242;26850;-71
2022/05/17 04:28:24;;;;;;;1.50;1.40;;;13.70;99.90;;;;;;586931;245;26732;-71
2022/05/17 04:30:52;;;;;;;1.77;1.67;;;13.70;99.90;;;;;;580157;248;26624;-71
2022/05/17 04:33:21;;;;;;;1.70;1.60;;;13.80;99.90;;;;;;591526;242;26651;-71
2022/05/17 04:35:47;;;;;;;1.80;1.70;;;13.80;99.90;;;;;;593438;242;26846;-71
2022/05/17 04:38:14;;;;;;;2.45;1.70;;;13.80;99.90;;;;;;581018;246;26631;-71
2022/05/17 04:40:42;;;;;;;2.12;1.58;;;13.80;99.90;;;;;;582412;247;27002;-71
2022/05/17 04:43:10;;;;;;;2.05;1.90;;;13.70;99.90;;;;;;584596;244;26632;-71
2022/05/17 04:45:37;;;;;;;2.65;1.60;;;13.60;99.90;;;;;;608066;235;26628;-71
2022/05/17 04:48:05;;;;;;;2.37;1.70;;;13.70;99.90;;;;;;603718;232;26953;-71
2022/05/17 04:50:32;;;;;;;2.70;1.70;;;13.80;99.90;;;;;;605000;237;26578;-71
2022/05/17 04:52:59;;;;;;;5.93;1.95;;;13.90;99.90;;;;;;604161;235;26887;-71
2022/05/17 04:55:26;;;;;;;2.45;1.50;;;13.80;99.90;;;;;;611517;235;26583;-71
2022/05/17 04:57:53;;;;;;;2.17;1.75;;;13.90;99.90;;;;;;608229;234;26866;-71
2022/05/17 05:00:21;;;;;;;2.62;2.05;;;13.90;99.90;;;;;;602680;238;26611;-71
2022/05/17 05:02:49;;;;;;;1.70;1.60;;;14.00;99.90;;;;;;602514;237;26614;-70
2022/05/17 05:05:17;;;;;;;2.65;1.65;;;14.00;99.90;;;;;;603696;237;26657;-69
2022/05/17 05:07:45;;;;;;;2.10;1.67;;;14.00;99.90;;;;;;606412;236;26599;-69
2022/05/17 05:10:12;;;;;;;1.83;1.70;;;14.10;99.90;;;;;;611937;235;27245;-69
2022/05/17 05:12:40;;;;;;;3.28;1.50;;;14.10;99.90;;;;;;609405;234;26657;-69
2022/05/17 05:15:10;;;;;;;2.97;1.90;;;14.20;99.50;;;;;;604198;231;26598;-69
2022/05/17 05:17:36;;;;;;;2.35;1.90;;;14.10;99.50;;;;;;605987;235;27209;-69
2022/05/17 05:20:04;;;;;;;2.95;1.95;;;14.10;98.90;;;;;;603884;237;26581;-69
2022/05/17 05:22:31;;;;;;;3.00;1.77;;;14.20;99.90;;;;;;604811;236;26575;-69
2022/05/17 05:24:58;;;;;;;2.87;1.58;;;14.20;99.40;;;;;;601875;236;26830;-69
2022/05/17 05:27:26;;;;;;;1.80;1.70;;;14.20;99.90;;;;;;601899;236;26603;-69
2022/05/17 05:29:53;;;;;;;1.60;1.50;;;14.30;99.90;;;;;;606986;236;26859;-69
2022/05/17 05:32:21;;;;;;;1.80;1.52;;;14.20;99.90;;;;;;603574;235;26547;-69
2022/05/17 05:34:48;;;;;;;1.65;1.55;;;14.20;99.90;;;;;;609297;235;26562;-68
2022/05/17 05:37:16;;;;;;;3.45;1.67;;;14.20;99.90;;;;;;604780;237;26767;-68
2022/05/17 05:39:43;;;;;;;1.55;1.45;;;14.30;99.90;;;;;;591924;237;26631;-69
2022/05/17 05:42:11;;;;;;;2.37;1.60;;;14.30;99.90;;;;;;602779;237;26577;-69
2022/05/17 05:44:38;;;;;;;1.52;1.42;;;14.30;99.90;;;;;;601776;238;26842;-69
2022/05/17 05:47:05;;;;;;;1.77;1.58;;;14.30;99.90;;;;;;603702;237;26586;-69
2022/05/17 05:49:33;;;;;;;2.12;1.77;;;14.40;99.90;;;;;;602953;238;26877;-69
2022/05/17 05:52:01;;;;;;;1.98;1.87;;;14.40;99.90;;;;;;602520;238;26855;-69
2022/05/17 05:54:28;;;;;;;2.45;1.60;;;14.40;99.90;;;;;;608419;236;26654;-69
2022/05/17 05:56:55;;;;;;;1.50;1.40;;;14.30;99.90;;;;;;602191;237;26970;-69
2022/05/17 05:59:23;;;;;;;2.95;1.67;;;14.30;99.90;;;;;;606098;235;26899;-69
2022/05/17 06:01:50;;;;;;;2.37;1.90;;;14.30;99.90;;;;;;605920;235;26581;-70
2022/05/17 06:04:17;;;;;;;2.17;1.80;;;14.30;99.90;;;;;;608837;235;27009;-69
2022/05/17 06:06:44;;;;;;;2.35;1.75;;;14.20;99.90;;;;;;606116;235;26606;-69
2022/05/17 06:09:12;;;;;;;1.80;1.70;;;14.20;99.90;;;;;;607670;235;27117;-69
2022/05/17 06:11:40;;;;;;;1.70;1.60;;;14.30;99.90;;;;;;603592;237;26585;-69
2022/05/17 06:14:08;;;;;;;1.67;1.58;;;14.30;99.90;;;;;;605110;237;26670;-69
2022/05/17 06:16:36;;;;;;;1.98;1.50;;;14.40;99.90;;;;;;602292;238;26591;-69
2022/05/17 06:19:04;;;;;;;1.70;1.60;;;14.50;99.90;;;;;;604088;236;26589;-69
2022/05/17 06:21:32;;;;;;;1.60;1.50;;;14.40;99.90;;;;;;601861;238;26658;-68
2022/05/17 06:23:58;;;;;;;1.77;1.67;;;14.50;99.90;;;;;;603799;232;27348;-69
2022/05/17 06:26:26;;;;;;;2.00;1.80;;;14.60;99.90;;;;;;602312;237;26588;-69
2022/05/17 06:28:54;;;;;;;1.50;1.40;;;14.70;99.90;;;;;;604275;238;26598;-69
2022/05/17 06:31:21;;;;;;;2.20;1.75;;;14.80;99.90;;;;;;601793;239;26820;-69
2022/05/17 06:33:48;;;;;;;3.78;1.62;;;15.00;99.90;;;;;;601562;237;26641;-70
2022/05/17 06:36:15;;;;;;;2.35;1.73;;;15.00;99.90;;;;;;596675;240;26690;-69
2022/05/17 06:38:42;;;;;;;2.42;1.60;;;15.10;99.90;;;;;;602366;235;26637;-69
2022/05/17 06:41:10;;;;;;;2.60;1.87;;;15.10;98.30;;;;;;602526;235;27298;-69
2022/05/17 06:43:38;;;;;;;2.15;1.73;;;15.10;98.30;;;;;;604030;234;26851;-69
2022/05/17 06:46:05;;;;;;;5.28;2.22;;;15.10;99.70;;;;;;602123;238;26656;-69
2022/05/17 06:48:32;;;;;;;2.08;1.83;;;15.10;98.40;;;;;;603408;237;26918;-69
2022/05/17 06:51:02;;;;;;;2.65;1.65;;;15.20;99.60;;;;;;601545;239;26631;-69
2022/05/17 06:53:30;;;;;;;2.00;1.50;;;15.30;98.30;;;;;;601396;239;26880;-69
2022/05/17 06:55:57;;;;;;;2.30;1.58;;;15.40;98.20;;;;;;601449;239;26620;-69
2022/05/17 06:58:25;;;;;;;2.60;2.00;;;15.80;99.60;;;;;;601406;239;26619;-69
2022/05/17 07:00:53;;;;;;;2.90;1.42;;;16.00;94.80;;;;;;601597;239;26672;-69
2022/05/17 07:03:21;;;;;;;2.72;1.48;;;16.20;96.80;;;;;;601544;239;26679;-69
2022/05/17 07:05:49;;;;;;;1.70;1.60;;;16.40;96.40;;;;;;601638;237;26609;-69
2022/05/17 07:08:17;;;;;;;2.62;1.90;;;16.60;95.40;;;;;;602033;237;26669;-69
2022/05/17 07:13:17;;;;;;;1.85;1.73;;;17.00;97.10;;;;;;605839;235;26905;-68
2022/05/17 07:15:45;;;;;;;1.92;1.65;;;17.20;92.90;;;;;;608289;235;26619;-63
2022/05/17 07:18:13;;;;;;;1.70;1.60;;;17.60;93.40;;;;;;602192;237;26657;-67
2022/05/17 07:20:40;;;;;;;5.87;2.17;;;17.60;93.40;;;;;;602070;233;26614;-64
2022/05/17 07:23:07;;;;;;;6.00;2.22;;;17.80;94.50;;;;;;606967;235;26826;-64
2022/05/17 07:25:35;;;;;;;2.10;1.85;;;17.90;95.80;;;;;;607850;235;26867;-65
2022/05/17 07:28:02;;;;;;;4.37;2.00;;;18.10;92.90;;;;;;605811;235;26567;-65
2022/05/17 07:30:29;;;;;;;4.22;2.00;;;18.40;93.60;;;;;;606522;232;26880;-64
2022/05/17 07:32:56;;;;;;;6.20;2.00;;;18.60;91.00;;;;;;605120;236;26860;-64
2022/05/17 07:35:23;;;;;;;9.02;1.80;;;18.80;94.20;;;;;;604801;236;26810;-64
2022/05/17 07:37:50;;;;;;;5.15;3.50;;;19.00;89.60;;;;;;603285;235;26574;-65
2022/05/17 07:40:18;;;;;;;4.72;4.20;;;19.00;90.30;;;;;;605906;235;26827;-64
2022/05/17 07:42:45;;;;;;;9.57;4.70;;;19.10;91.50;;;;;;606440;234;26605;-65
2022/05/17 07:45:12;;;;;;;6.95;4.30;;;19.10;89.90;;;;;;606194;235;26857;-64
2022/05/17 07:47:39;;;;;;;7.10;3.83;;;19.00;90.20;;;;;;604280;236;26637;-64
2022/05/17 07:50:07;;;;;;;4.10;3.55;;;18.70;88.50;;;;;;606008;235;26637;-65
2022/05/17 07:52:35;;;;;;;6.18;3.72;;;18.60;88.70;;;;;;603922;234;26646;-64
2022/05/17 07:55:03;;;;;;;5.85;3.53;;;18.90;87.80;;;;;;603473;235;26590;-64
2022/05/17 07:57:31;;;;;;;6.15;3.50;;;18.70;86.60;;;;;;606694;235;26682;-64
2022/05/17 07:59:59;;;;;;;4.53;3.35;;;18.70;86.40;;;;;;603021;236;26646;-64
2022/05/17 08:02:26;;;;;;;4.28;3.15;;;18.70;86.30;;;;;;604077;235;26641;-64
2022/05/17 08:04:53;;;;;;;5.78;3.60;;;18.60;86.50;;;;;;608056;235;26632;-64
2022/05/17 08:07:21;;;;;;;4.95;3.37;;;18.50;86.90;;;;;;604929;235;26963;-64
2022/05/17 08:09:48;;;;;;;5.45;3.42;;;18.40;88.80;;;;;;592753;239;26667;-64
2022/05/17 08:12:16;;;;;;;7.12;3.30;;;18.80;90.10;;;;;;593120;239;26686;-64
2022/05/17 08:14:45;;;;;;;4.43;3.30;;;18.90;90.10;;;;;;592513;240;26611;-67
2022/05/17 08:17:12;;;;;;;5.10;3.58;;;18.90;90.20;;;;;;595392;239;26605;-66
2022/05/17 08:19:39;;;;;;;6.80;3.70;;;18.90;89.90;;;;;;593435;238;26614;-63
2022/05/17 08:22:07;;;;;;;5.78;3.58;;;19.30;86.70;;;;;;582531;246;26691;-63
2022/05/17 08:27:31;;;;;;;6.45;3.42;;;19.30;86.30;;;;;;595805;238;26930;-60
2022/05/17 08:29:34;;;;;;;11.05;3.42;;;19.30;85.40;;;;;;587511;243;26682;-61
2022/05/17 08:34:36;;;;;;;7.90;3.17;;;19.80;86.30;;;;;;595282;238;26644;-61
2022/05/17 08:37:03;;;;;;;4.90;3.30;;;19.80;86.30;;;;;;597773;240;26808;-61
2022/05/17 08:39:31;;;;;;;8.05;3.28;;;20.00;85.80;;;;;;580090;247;26641;-61
2022/05/17 08:42:10;;;;;;;7.57;4.20;;;19.90;84.10;;;;;;580573;245;26636;-61
2022/05/17 08:44:42;;;;;;;9.55;3.87;;;20.00;83.80;;;;;;579907;248;26628;-61
2022/05/17 08:47:12;;;;;;;7.47;3.35;;;20.30;85.70;;;;;;593412;242;26612;-61
2022/05/17 08:49:40;;;;;;;5.82;4.37;;;20.00;84.30;;;;;;594397;239;26661;-60
2022/05/17 08:52:13;;;;;;;6.20;3.83;;;20.30;82.50;;;;;;583291;244;26651;-61
2022/05/17 08:54:41;;;;;;;9.35;4.03;;;20.30;82.40;;;;;;605827;235;26857;-60
2022/05/17 08:57:14;;;;;;;10.10;4.30;;;20.40;79.50;;;;;;601888;236;26625;-60
2022/05/17 08:59:42;;;;;;;14.98;4.87;;;20.40;78.90;;;;;;607004;236;26594;-60
2022/05/17 09:02:12;;;;;;;12.80;5.62;;;20.30;79.50;;;;;;603035;236;26856;-61
2022/05/17 09:04:51;;;;;;;15.20;5.75;;;20.50;79.00;;;;;;604384;235;26562;-61
2022/05/17 09:07:24;;;;;;;13.82;4.93;;;20.30;79.60;;;;;;601589;239;27261;-61
2022/05/17 09:10:03;;;;;;;13.05;4.85;;;19.90;80.30;;;;;;604824;236;26554;-61
2022/05/17 09:12:45;;;;;;;13.93;4.93;;;19.70;82.00;;;;;;605486;236;26809;-61
2022/05/17 09:15:12;;;;;;;9.40;4.03;;;20.00;81.30;;;;;;600161;239;26653;-61
2022/05/17 09:17:40;;;;;;;8.07;4.47;;;20.40;80.50;;;;;;602680;238;26619;-61
2022/05/17 09:20:09;;;;;;;9.68;4.32;;;20.70;80.00;;;;;;603378;237;26616;-60
2022/05/17 09:22:35;;;;;;;7.62;4.05;;;21.00;77.90;;;;;;607400;235;26866;-62
2022/05/17 09:25:02;;;;;;;7.03;3.85;;;21.10;77.50;;;;;;609642;235;26629;-61
2022/05/17 09:27:33;;;;;;;5.82;3.65;;;20.90;76.50;;;;;;600736;239;26887;-61
2022/05/17 09:30:06;;;;;;;6.93;3.90;;;21.00;78.10;;;;;;602803;237;26606;-63
2022/05/17 09:32:35;;;;;;;7.20;3.28;;;21.00;76.40;;;;;;603249;234;26621;-62
2022/05/17 09:35:13;;;;;;;9.80;4.05;;;20.90;77.80;;;;;;605257;235;26638;-62
2022/05/17 09:37:40;;;;;;;8.50;3.87;;;20.90;77.80;;;;;;611428;234;26828;-62
2022/05/17 09:40:08;;;;;;;7.28;4.00;;;21.00;78.10;;;;;;607817;234;26649;-61
2022/05/17 09:42:43;;;;;;;5.35;3.45;;;20.70;77.80;;;;;;602404;236;26821;-60
2022/05/17 09:45:11;;;;;;;6.95;3.83;;;20.90;76.20;;;;;;604630;237;26638;-64
2022/05/17 09:47:42;;;;;;;6.65;3.37;;;20.90;76.70;;;;;;602734;238;26836;-61
2022/05/17 09:52:45;;;;;;;4.32;2.83;;;21.30;74.80;;;;;;603896;235;26624;-61
2022/05/17 09:55:21;;;;;;;5.28;2.62;;;22.20;72.20;;;;;;602740;237;26594;-61
2022/05/17 09:58:07;;;;;;;7.85;3.65;;;22.20;72.20;;;;;;603413;236;26587;-61
2022/05/17 10:00:56;;;;;;;6.40;3.15;;;22.00;71.50;;;;;;602781;237;26582;-60
2022/05/17 10:03:41;;;;;;;8.80;3.40;;;22.30;71.60;;;;;;609672;235;26612;-60
2022/05/17 10:06:19;;;;;;;5.68;3.10;;;22.30;69.70;;;;;;601724;236;26622;-60
2022/05/17 10:08:47;;;;;;;5.05;3.45;;;22.20;69.70;;;;;;603091;236;26867;-60
2022/05/17 10:11:15;;;;;;;4.80;3.05;;;22.00;70.00;;;;;;603124;235;26593;-60
2022/05/17 10:14:01;;;;;;;5.62;3.17;;;22.00;70.00;;;;;;602370;237;26888;-61
2022/05/17 10:16:33;;;;;;;3.72;2.90;;;22.40;70.00;;;;;;608276;235;26626;-61
2022/05/17 10:19:01;;;;;;;5.20;3.28;;;22.60;67.70;;;;;;606257;235;26545;-61
2022/05/17 10:21:44;;;;;;;3.80;2.95;;;22.30;62.80;;;;;;608104;236;26555;-62
2022/05/17 10:24:14;;;;;;;5.28;3.67;;;22.60;62.80;;;;;;602216;238;26645;-61
2022/05/17 10:26:44;;;;;;;4.65;3.53;;;23.10;63.00;;;;;;604681;238;26634;-60
2022/05/17 10:29:14;;;;;;;12.77;8.35;;;23.10;62.90;;;;;;601720;238;26833;-61
2022/05/17 10:31:43;;;;;;;9.98;6.72;;;23.20;63.40;;;;;;602732;238;26581;-61
2022/05/17 10:34:10;;;;;;;7.70;5.50;;;23.70;62.40;;;;;;602651;238;27289;-61
2022/05/17 10:36:43;;;;;;;6.72;4.60;;;23.90;58.20;;;;;;603413;238;26590;-61
2022/05/17 10:39:15;;;;;;;7.00;4.80;;;23.70;57.40;;;;;;608670;236;26643;-61
2022/05/17 10:41:42;;;;;;;5.55;4.18;;;23.70;56.60;;;;;;601201;239;26818;-61
2022/05/17 10:44:09;;;;;;;5.25;3.92;;;23.40;58.20;;;;;;608110;234;26645;-61
2022/05/17 10:46:36;;;;;;;4.07;3.10;;;23.00;59.60;;;;;;605924;234;26630;-62
2022/05/17 10:49:06;;;;;;;4.25;3.20;;;22.90;59.30;;;;;;607438;235;26596;-62
2022/05/17 10:51:33;;;;;;;5.65;4.03;;;22.80;59.30;;;;;;602593;237;26839;-61
2022/05/17 10:54:10;;;;;;;6.05;3.55;;;23.20;59.00;;;;;;603485;236;26621;-62
2022/05/17 10:56:50;;;;;;;11.95;4.32;;;23.20;59.00;;;;;;604066;238;27011;-62
2022/05/17 10:59:22;;;;;;;8.75;3.92;;;22.90;58.80;;;;;;610194;236;26589;-62
2022/05/17 11:01:51;;;;;;;7.87;4.10;;;23.00;58.80;;;;;;606919;236;26804;-62
2022/05/17 11:04:22;;;;;;;4.45;3.83;;;23.00;57.80;;;;;;603396;238;26596;-62
2022/05/17 11:06:53;;;;;;;4.72;3.87;;;22.80;58.00;;;;;;604368;237;26801;-72
2022/05/17 11:09:27;;;;;;;8.25;3.75;;;22.30;57.50;;;;;;602293;238;26544;-72
2022/05/17 11:12:09;;;;;;;5.32;3.42;;;22.50;57.70;;;;;;603292;238;26776;-71
2022/05/17 11:14:47;;;;;;;10.55;3.85;;;22.70;57.00;;;;;;602180;238;26573;-72
2022/05/17 11:17:32;;;;;;;5.30;3.40;;;22.70;57.20;;;;;;604531;238;26550;-72
2022/05/17 11:20:04;;;;;;;4.78;3.30;;;22.80;58.20;;;;;;595730;232;26637;-72
2022/05/17 11:22:27;;;;;;;4.05;3.08;;;22.80;58.70;;;;;;604290;236;26898;-71
2022/05/17 11:25:13;;;;;;;7.43;4.62;;;23.10;59.80;;;;;;603261;238;26590;-73
2022/05/17 11:27:46;;;;;;;6.68;4.15;;;23.10;59.90;;;;;;607001;236;26592;-73
2022/05/17 11:30:17;;;;;;;8.00;5.75;;;23.40;60.00;;;;;;603080;237;26658;-74
2022/05/17 11:33:11;;;;;;;8.90;5.10;;;23.40;59.40;;;;;;602042;238;26659;-73
2022/05/17 11:35:39;;;;;;;9.48;4.95;;;23.60;59.50;;;;;;601031;237;26640;-73
2022/05/17 11:38:07;;;;;;;10.50;5.00;;;23.90;64.30;;;;;;602949;237;26589;-72
2022/05/17 11:40:51;;;;;;;14.30;6.22;;;23.60;62.60;;;;;;602491;237;26621;-73
2022/05/17 11:45:54;;;;;;;18.20;6.95;;;23.50;61.80;;;;;;601491;237;26679;-72
2022/05/17 11:48:19;;;;;;;23.33;7.80;;;23.50;63.10;;;;;;602090;238;26632;-72
2022/05/17 11:50:53;;;;;;;25.08;7.97;;;23.30;63.20;;;;;;602167;238;26674;-69
2022/05/17 11:53:34;;;;;;;125.15;25.05;;;23.30;62.50;;;;;;608233;236;26632;-70
2022/05/17 11:56:21;;;;;;;114.97;26.87;;;23.10;61.20;;;;;;610652;233;26882;-69
2022/05/17 11:58:48;;;;;;;121.82;27.42;;;23.80;61.30;;;;;;604728;235;26654;-71
2022/05/17 12:01:28;;;;;;;83.30;22.33;;;24.00;59.00;;;;;;607114;234;26875;-77
2022/05/17 12:03:54;;;;;;;76.97;22.05;;;23.80;57.70;;;;;;603358;236;26613;-77
2022/05/17 12:06:33;;;;;;;80.50;20.65;;;23.90;58.20;;;;;;606944;236;26589;-77
2022/05/17 12:09:00;;;;;;;77.35;20.73;;;23.80;58.10;;;;;;606025;236;26586;-77
2022/05/17 12:11:32;;;;;;;73.07;18.95;;;24.40;57.90;;;;;;608603;235;26833;-77
2022/05/17 12:14:09;;;;;;;62.83;17.33;;;24.70;57.70;;;;;;602633;237;26623;-75
2022/05/17 12:16:36;;;;;;;39.78;10.15;;;25.20;56.60;;;;;;604796;236;26578;-76
2022/05/17 12:19:06;;;;;;;8.23;4.05;;;25.40;56.90;;;;;;601260;236;26603;-75
2022/05/17 12:21:34;;;;;;;36.38;10.98;;;25.60;56.80;;;;;;603509;235;26838;-74
2022/05/17 12:24:08;;;;;;;9.35;4.70;;;26.10;54.30;;;;;;605150;235;26649;-72
2022/05/17 12:26:57;;;;;;;29.15;8.80;;;26.40;53.70;;;;;;603782;236;26558;-72
2022/05/17 12:31:59;;;;;;;8.85;4.28;;;26.70;51.70;;;;;;606418;235;27301;-72
2022/05/17 12:34:27;;;;;;;21.08;7.95;;;26.70;51.20;;;;;;607464;235;26669;-71
2022/05/17 12:37:06;;;;;;;17.27;6.20;;;26.60;51.70;;;;;;610122;235;26636;-64
2022/05/17 12:44:39;;;;;;;4.68;3.17;;;26.60;51.30;;;;;;603444;236;26565;-64
2022/05/17 12:47:08;;;;;;;14.35;4.95;;;26.90;49.90;;;;;;603123;237;26557;-64
2022/05/17 12:49:35;;;;;;;4.03;3.08;;;26.90;49.90;;;;;;604500;235;26617;-64
2022/05/17 12:52:09;;;;;;;6.50;3.20;;;27.20;50.60;;;;;;602907;236;26629;-64
2022/05/17 12:54:36;;;;;;;11.38;4.57;;;27.20;50.50;;;;;;603055;236;26653;-64
2022/05/17 12:57:16;;;;;;;11.20;4.22;;;27.40;49.80;;;;;;604638;238;26578;-64
2022/05/17 12:59:44;;;;;;;2.85;2.47;;;27.30;50.20;;;;;;604542;237;26559;-64
2022/05/17 13:02:13;;;;;;;3.33;2.08;;;27.70;50.10;;;;;;604523;238;26664;-64
2022/05/17 13:04:40;;;;;;;8.43;4.00;;;27.70;49.70;;;;;;603783;238;26579;-64
2022/05/17 13:07:13;;;;;;;7.78;3.97;;;27.60;47.90;;;;;;605725;236;26573;-64
2022/05/17 13:09:39;;;;;;;3.85;2.47;;;27.60;47.80;;;;;;605864;236;26649;-64
2022/05/17 13:12:13;;;;;;;8.95;4.00;;;27.50;48.30;;;;;;602989;237;26574;-65
2022/05/17 13:14:40;;;;;;;11.18;4.47;;;27.10;46.90;;;;;;605753;237;26610;-64
2022/05/17 13:17:11;;;;;;;9.05;4.10;;;26.60;48.40;;;;;;605556;238;26604;-64
2022/05/17 13:19:38;;;;;;;8.55;4.05;;;26.60;48.30;;;;;;605274;238;26608;-65